sensor_id;sensor_type;location;lat;lon;timestamp;P1;durP1;ratioP1;P2;durP2;ratioP2
52898;SDS011;38763;53.096;6.062;2022-07-12T00:01:17;9.95;;;5.30;;
52898;SDS011;38763;53.096;6.062;2022-07-12T00:03:43;9.45;;;5.40;;
52898;SDS011;38763;53.096;6.062;2022-07-12T00:06:09;9.88;;;5.65;;
52898;SDS011;38763;53.096;6.062;2022-07-12T00:08:35;10.45;;;6.10;;
52898;SDS011;38763;53.096;6.062;2022-07-12T00:11:00;9.88;;;5.28;;
52898;SDS011;38763;53.096;6.062;2022-07-12T00:13:26;9.73;;;5.93;;
52898;SDS011;38763;53.096;6.062;2022-07-12T00:15:52;11.40;;;6.30;;
52898;SDS011;38763;53.096;6.062;2022-07-12T00:18:17;11.95;;;6.93;;
52898;SDS011;38763;53.096;6.062;2022-07-12T00:20:43;11.32;;;7.00;;
52898;SDS011;38763;53.096;6.062;2022-07-12T00:23:08;11.00;;;6.60;;
52898;SDS011;38763;53.096;6.062;2022-07-12T00:25:34;10.70;;;6.65;;
52898;SDS011;38763;53.096;6.062;2022-07-12T00:28:00;10.70;;;6.35;;
52898;SDS011;38763;53.096;6.062;2022-07-12T00:30:25;12.30;;;6.65;;
52898;SDS011;38763;53.096;6.062;2022-07-12T00:32:51;12.07;;;7.00;;
52898;SDS011;38763;53.096;6.062;2022-07-12T00:35:16;10.73;;;6.55;;
52898;SDS011;38763;53.096;6.062;2022-07-12T00:37:42;11.23;;;6.90;;
52898;SDS011;38763;53.096;6.062;2022-07-12T00:40:08;12.98;;;7.63;;
52898;SDS011;38763;53.096;6.062;2022-07-12T00:42:35;11.27;;;7.22;;
52898;SDS011;38763;53.096;6.062;2022-07-12T00:45:05;11.57;;;6.85;;
52898;SDS011;38763;53.096;6.062;2022-07-12T00:47:34;12.43;;;7.00;;
52898;SDS011;38763;53.096;6.062;2022-07-12T00:50:03;11.43;;;6.80;;
52898;SDS011;38763;53.096;6.062;2022-07-12T00:52:30;10.63;;;6.63;;
52898;SDS011;38763;53.096;6.062;2022-07-12T00:54:56;10.85;;;6.47;;
52898;SDS011;38763;53.096;6.062;2022-07-12T00:57:22;11.70;;;6.60;;
52898;SDS011;38763;53.096;6.062;2022-07-12T00:59:48;11.10;;;6.28;;
52898;SDS011;38763;53.096;6.062;2022-07-12T01:02:14;11.63;;;7.30;;
52898;SDS011;38763;53.096;6.062;2022-07-12T01:04:39;12.90;;;6.40;;
52898;SDS011;38763;53.096;6.062;2022-07-12T01:07:05;11.75;;;5.72;;
52898;SDS011;38763;53.096;6.062;2022-07-12T01:09:31;14.20;;;6.47;;
52898;SDS011;38763;53.096;6.062;2022-07-12T01:11:57;10.32;;;6.13;;
52898;SDS011;38763;53.096;6.062;2022-07-12T01:14:23;12.60;;;6.20;;
52898;SDS011;38763;53.096;6.062;2022-07-12T01:16:49;11.35;;;5.43;;
52898;SDS011;38763;53.096;6.062;2022-07-12T01:19:18;8.73;;;5.95;;
52898;SDS011;38763;53.096;6.062;2022-07-12T01:21:46;19.38;;;5.75;;
52898;SDS011;38763;53.096;6.062;2022-07-12T01:24:14;11.70;;;5.20;;
52898;SDS011;38763;53.096;6.062;2022-07-12T01:26:40;15.07;;;5.82;;
52898;SDS011;38763;53.096;6.062;2022-07-12T01:29:06;9.63;;;5.78;;
52898;SDS011;38763;53.096;6.062;2022-07-12T01:31:34;19.90;;;6.43;;
52898;SDS011;38763;53.096;6.062;2022-07-12T01:34:01;15.95;;;5.78;;
52898;SDS011;38763;53.096;6.062;2022-07-12T01:36:31;9.23;;;5.85;;
52898;SDS011;38763;53.096;6.062;2022-07-12T01:38:58;17.88;;;6.47;;
52898;SDS011;38763;53.096;6.062;2022-07-12T01:41:23;31.15;;;6.60;;
52898;SDS011;38763;53.096;6.062;2022-07-12T01:43:50;51.80;;;6.75;;
52898;SDS011;38763;53.096;6.062;2022-07-12T01:46:16;183.55;;;10.82;;
52898;SDS011;38763;53.096;6.062;2022-07-12T01:48:42;57.28;;;7.45;;
52898;SDS011;38763;53.096;6.062;2022-07-12T01:51:07;61.90;;;6.28;;
52898;SDS011;38763;53.096;6.062;2022-07-12T01:53:34;91.25;;;7.03;;
52898;SDS011;38763;53.096;6.062;2022-07-12T01:56:02;85.97;;;8.48;;
52898;SDS011;38763;53.096;6.062;2022-07-12T01:58:28;86.82;;;6.88;;
52898;SDS011;38763;53.096;6.062;2022-07-12T02:00:55;104.93;;;7.03;;
52898;SDS011;38763;53.096;6.062;2022-07-12T02:03:21;77.05;;;6.63;;
52898;SDS011;38763;53.096;6.062;2022-07-12T02:05:47;94.70;;;6.75;;
52898;SDS011;38763;53.096;6.062;2022-07-12T02:08:13;73.93;;;6.60;;
52898;SDS011;38763;53.096;6.062;2022-07-12T02:10:42;66.35;;;6.63;;
52898;SDS011;38763;53.096;6.062;2022-07-12T02:13:08;53.60;;;5.90;;
52898;SDS011;38763;53.096;6.062;2022-07-12T02:15:34;79.55;;;6.32;;
52898;SDS011;38763;53.096;6.062;2022-07-12T02:17:59;148.77;;;8.20;;
52898;SDS011;38763;53.096;6.062;2022-07-12T02:20:25;106.78;;;7.00;;
52898;SDS011;38763;53.096;6.062;2022-07-12T02:22:51;86.57;;;6.40;;
52898;SDS011;38763;53.096;6.062;2022-07-12T02:25:16;121.72;;;7.85;;
52898;SDS011;38763;53.096;6.062;2022-07-12T02:27:42;145.15;;;7.97;;
52898;SDS011;38763;53.096;6.062;2022-07-12T02:30:09;94.88;;;8.18;;
52898;SDS011;38763;53.096;6.062;2022-07-12T02:32:36;142.63;;;7.65;;
52898;SDS011;38763;53.096;6.062;2022-07-12T02:35:03;171.75;;;8.70;;
52898;SDS011;38763;53.096;6.062;2022-07-12T02:37:31;155.43;;;8.23;;
52898;SDS011;38763;53.096;6.062;2022-07-12T02:39:57;148.90;;;9.30;;
52898;SDS011;38763;53.096;6.062;2022-07-12T02:42:41;135.02;;;8.57;;
52898;SDS011;38763;53.096;6.062;2022-07-12T02:45:08;104.43;;;7.78;;
52898;SDS011;38763;53.096;6.062;2022-07-12T02:47:38;94.18;;;7.57;;
52898;SDS011;38763;53.096;6.062;2022-07-12T02:50:05;52.80;;;6.70;;
52898;SDS011;38763;53.096;6.062;2022-07-12T02:52:31;80.43;;;6.40;;
52898;SDS011;38763;53.096;6.062;2022-07-12T02:54:57;37.90;;;6.25;;
52898;SDS011;38763;53.096;6.062;2022-07-12T02:57:23;64.03;;;7.13;;
52898;SDS011;38763;53.096;6.062;2022-07-12T02:59:48;94.07;;;6.43;;
52898;SDS011;38763;53.096;6.062;2022-07-12T03:02:14;53.45;;;6.07;;
52898;SDS011;38763;53.096;6.062;2022-07-12T03:04:40;53.42;;;5.15;;
52898;SDS011;38763;53.096;6.062;2022-07-12T03:07:05;83.35;;;5.72;;
52898;SDS011;38763;53.096;6.062;2022-07-12T03:09:31;49.33;;;5.47;;
52898;SDS011;38763;53.096;6.062;2022-07-12T03:11:57;61.83;;;5.22;;
52898;SDS011;38763;53.096;6.062;2022-07-12T03:14:22;42.42;;;4.90;;
52898;SDS011;38763;53.096;6.062;2022-07-12T03:16:48;33.83;;;4.70;;
52898;SDS011;38763;53.096;6.062;2022-07-12T03:19:14;37.55;;;4.20;;
52898;SDS011;38763;53.096;6.062;2022-07-12T03:21:40;61.55;;;5.03;;
52898;SDS011;38763;53.096;6.062;2022-07-12T03:24:05;28.73;;;4.45;;
52898;SDS011;38763;53.096;6.062;2022-07-12T03:26:31;37.35;;;4.72;;
52898;SDS011;38763;53.096;6.062;2022-07-12T03:28:56;27.35;;;4.15;;
52898;SDS011;38763;53.096;6.062;2022-07-12T03:31:25;31.20;;;4.10;;
52898;SDS011;38763;53.096;6.062;2022-07-12T03:33:51;14.32;;;3.28;;
52898;SDS011;38763;53.096;6.062;2022-07-12T03:36:17;34.15;;;3.45;;
52898;SDS011;38763;53.096;6.062;2022-07-12T03:38:43;38.60;;;4.38;;
52898;SDS011;38763;53.096;6.062;2022-07-12T03:41:08;21.95;;;3.65;;
52898;SDS011;38763;53.096;6.062;2022-07-12T03:43:34;20.77;;;3.78;;
52898;SDS011;38763;53.096;6.062;2022-07-12T03:45:59;20.17;;;2.90;;
52898;SDS011;38763;53.096;6.062;2022-07-12T03:48:25;15.80;;;3.45;;
52898;SDS011;38763;53.096;6.062;2022-07-12T03:50:50;11.10;;;3.42;;
52898;SDS011;38763;53.096;6.062;2022-07-12T03:53:16;15.35;;;3.80;;
52898;SDS011;38763;53.096;6.062;2022-07-12T03:55:42;24.38;;;3.08;;
52898;SDS011;38763;53.096;6.062;2022-07-12T03:58:07;17.50;;;3.45;;
52898;SDS011;38763;53.096;6.062;2022-07-12T04:00:33;13.05;;;3.35;;
52898;SDS011;38763;53.096;6.062;2022-07-12T04:02:59;26.33;;;4.43;;
52898;SDS011;38763;53.096;6.062;2022-07-12T04:05:24;33.03;;;4.05;;
52898;SDS011;38763;53.096;6.062;2022-07-12T04:07:51;19.38;;;3.35;;
52898;SDS011;38763;53.096;6.062;2022-07-12T04:10:18;14.32;;;3.47;;
52898;SDS011;38763;53.096;6.062;2022-07-12T04:12:45;45.38;;;3.88;;
52898;SDS011;38763;53.096;6.062;2022-07-12T04:15:10;30.27;;;3.42;;
52898;SDS011;38763;53.096;6.062;2022-07-12T04:17:36;19.50;;;3.05;;
52898;SDS011;38763;53.096;6.062;2022-07-12T04:20:03;16.85;;;3.03;;
52898;SDS011;38763;53.096;6.062;2022-07-12T04:22:29;31.25;;;3.53;;
52898;SDS011;38763;53.096;6.062;2022-07-12T04:24:55;14.02;;;3.40;;
52898;SDS011;38763;53.096;6.062;2022-07-12T04:27:21;10.23;;;3.60;;
52898;SDS011;38763;53.096;6.062;2022-07-12T04:29:46;24.27;;;3.78;;
52898;SDS011;38763;53.096;6.062;2022-07-12T04:32:12;24.95;;;5.05;;
52898;SDS011;38763;53.096;6.062;2022-07-12T04:34:38;22.60;;;3.70;;
52898;SDS011;38763;53.096;6.062;2022-07-12T04:37:03;16.27;;;3.13;;
52898;SDS011;38763;53.096;6.062;2022-07-12T04:39:29;10.52;;;3.00;;
52898;SDS011;38763;53.096;6.062;2022-07-12T04:41:54;7.90;;;3.20;;
52898;SDS011;38763;53.096;6.062;2022-07-12T04:44:20;5.28;;;2.90;;
52898;SDS011;38763;53.096;6.062;2022-07-12T04:46:46;9.32;;;3.05;;
52898;SDS011;38763;53.096;6.062;2022-07-12T04:49:11;6.55;;;3.00;;
52898;SDS011;38763;53.096;6.062;2022-07-12T04:51:37;4.78;;;2.80;;
52898;SDS011;38763;53.096;6.062;2022-07-12T04:54:02;4.20;;;2.80;;
52898;SDS011;38763;53.096;6.062;2022-07-12T04:56:28;5.03;;;2.58;;
52898;SDS011;38763;53.096;6.062;2022-07-12T04:58:54;4.68;;;2.72;;
52898;SDS011;38763;53.096;6.062;2022-07-12T05:01:19;5.70;;;2.80;;
52898;SDS011;38763;53.096;6.062;2022-07-12T05:03:45;4.97;;;3.00;;
52898;SDS011;38763;53.096;6.062;2022-07-12T05:06:12;4.22;;;2.80;;
52898;SDS011;38763;53.096;6.062;2022-07-12T05:08:38;4.20;;;2.50;;
52898;SDS011;38763;53.096;6.062;2022-07-12T05:11:04;5.00;;;2.63;;
52898;SDS011;38763;53.096;6.062;2022-07-12T05:13:29;4.70;;;2.60;;
52898;SDS011;38763;53.096;6.062;2022-07-12T05:15:55;5.85;;;2.90;;
52898;SDS011;38763;53.096;6.062;2022-07-12T05:18:21;4.93;;;2.60;;
52898;SDS011;38763;53.096;6.062;2022-07-12T05:20:46;5.25;;;2.72;;
52898;SDS011;38763;53.096;6.062;2022-07-12T05:23:12;4.72;;;2.55;;
52898;SDS011;38763;53.096;6.062;2022-07-12T05:25:38;4.60;;;2.45;;
52898;SDS011;38763;53.096;6.062;2022-07-12T05:28:03;4.90;;;2.60;;
52898;SDS011;38763;53.096;6.062;2022-07-12T05:30:29;4.55;;;2.45;;
52898;SDS011;38763;53.096;6.062;2022-07-12T05:32:55;4.88;;;2.70;;
52898;SDS011;38763;53.096;6.062;2022-07-12T05:35:20;6.13;;;2.60;;
52898;SDS011;38763;53.096;6.062;2022-07-12T05:37:46;5.40;;;2.95;;
52898;SDS011;38763;53.096;6.062;2022-07-12T05:40:12;5.20;;;2.75;;
52898;SDS011;38763;53.096;6.062;2022-07-12T05:42:37;4.20;;;2.38;;
52898;SDS011;38763;53.096;6.062;2022-07-12T05:45:04;6.63;;;3.00;;
52898;SDS011;38763;53.096;6.062;2022-07-12T05:47:30;4.40;;;2.70;;
52898;SDS011;38763;53.096;6.062;2022-07-12T05:49:56;4.22;;;2.30;;
52898;SDS011;38763;53.096;6.062;2022-07-12T05:52:22;5.63;;;2.60;;
52898;SDS011;38763;53.096;6.062;2022-07-12T05:55:06;5.03;;;2.70;;
52898;SDS011;38763;53.096;6.062;2022-07-12T05:57:31;5.75;;;2.95;;
52898;SDS011;38763;53.096;6.062;2022-07-12T05:59:57;5.03;;;2.75;;
52898;SDS011;38763;53.096;6.062;2022-07-12T06:02:23;5.97;;;3.30;;
52898;SDS011;38763;53.096;6.062;2022-07-12T06:04:48;4.65;;;2.50;;
52898;SDS011;38763;53.096;6.062;2022-07-12T06:07:14;5.45;;;3.10;;
52898;SDS011;38763;53.096;6.062;2022-07-12T06:09:39;4.63;;;2.65;;
52898;SDS011;38763;53.096;6.062;2022-07-12T06:12:05;7.00;;;3.40;;
52898;SDS011;38763;53.096;6.062;2022-07-12T06:14:31;4.40;;;2.80;;
52898;SDS011;38763;53.096;6.062;2022-07-12T06:16:57;4.25;;;2.70;;
52898;SDS011;38763;53.096;6.062;2022-07-12T06:19:22;5.20;;;2.83;;
52898;SDS011;38763;53.096;6.062;2022-07-12T06:21:48;4.60;;;2.90;;
52898;SDS011;38763;53.096;6.062;2022-07-12T06:24:14;6.00;;;3.20;;
52898;SDS011;38763;53.096;6.062;2022-07-12T06:26:40;5.28;;;2.63;;
52898;SDS011;38763;53.096;6.062;2022-07-12T06:29:06;4.53;;;2.75;;
52898;SDS011;38763;53.096;6.062;2022-07-12T06:31:31;3.90;;;2.40;;
52898;SDS011;38763;53.096;6.062;2022-07-12T06:33:59;4.07;;;2.60;;
52898;SDS011;38763;53.096;6.062;2022-07-12T06:36:24;4.78;;;2.83;;
52898;SDS011;38763;53.096;6.062;2022-07-12T06:38:50;4.32;;;2.80;;
52898;SDS011;38763;53.096;6.062;2022-07-12T06:41:15;4.25;;;2.75;;
52898;SDS011;38763;53.096;6.062;2022-07-12T06:43:42;4.63;;;2.80;;
52898;SDS011;38763;53.096;6.062;2022-07-12T06:46:07;3.92;;;2.70;;
52898;SDS011;38763;53.096;6.062;2022-07-12T06:48:33;4.90;;;2.85;;
52898;SDS011;38763;53.096;6.062;2022-07-12T06:50:58;4.00;;;2.47;;
52898;SDS011;38763;53.096;6.062;2022-07-12T06:53:24;4.15;;;2.60;;
52898;SDS011;38763;53.096;6.062;2022-07-12T06:55:49;4.60;;;2.80;;
52898;SDS011;38763;53.096;6.062;2022-07-12T06:58:15;4.57;;;2.80;;
52898;SDS011;38763;53.096;6.062;2022-07-12T07:00:41;3.88;;;2.53;;
52898;SDS011;38763;53.096;6.062;2022-07-12T07:03:07;4.13;;;2.50;;
52898;SDS011;38763;53.096;6.062;2022-07-12T07:05:34;4.70;;;2.50;;
52898;SDS011;38763;53.096;6.062;2022-07-12T07:08:01;4.57;;;2.40;;
52898;SDS011;38763;53.096;6.062;2022-07-12T07:10:28;4.35;;;2.42;;
52898;SDS011;38763;53.096;6.062;2022-07-12T07:12:53;4.30;;;2.63;;
52898;SDS011;38763;53.096;6.062;2022-07-12T07:15:19;4.60;;;2.90;;
52898;SDS011;38763;53.096;6.062;2022-07-12T07:17:44;3.85;;;2.60;;
52898;SDS011;38763;53.096;6.062;2022-07-12T07:20:10;4.35;;;2.75;;
52898;SDS011;38763;53.096;6.062;2022-07-12T07:22:36;4.90;;;2.92;;
52898;SDS011;38763;53.096;6.062;2022-07-12T07:25:02;4.68;;;3.10;;
52898;SDS011;38763;53.096;6.062;2022-07-12T07:27:28;4.90;;;2.70;;
52898;SDS011;38763;53.096;6.062;2022-07-12T07:29:54;5.13;;;2.80;;
52898;SDS011;38763;53.096;6.062;2022-07-12T07:32:38;4.57;;;2.70;;
52898;SDS011;38763;53.096;6.062;2022-07-12T07:35:04;3.75;;;2.67;;
52898;SDS011;38763;53.096;6.062;2022-07-12T07:37:31;5.95;;;3.00;;
52898;SDS011;38763;53.096;6.062;2022-07-12T07:39:57;4.22;;;2.40;;
52898;SDS011;38763;53.096;6.062;2022-07-12T07:42:23;4.28;;;2.50;;
52898;SDS011;38763;53.096;6.062;2022-07-12T07:44:48;4.57;;;2.70;;
52898;SDS011;38763;53.096;6.062;2022-07-12T07:47:14;4.57;;;2.60;;
52898;SDS011;38763;53.096;6.062;2022-07-12T07:49:39;7.47;;;3.20;;
52898;SDS011;38763;53.096;6.062;2022-07-12T07:52:05;4.75;;;2.90;;
52898;SDS011;38763;53.096;6.062;2022-07-12T07:54:31;3.67;;;2.20;;
52898;SDS011;38763;53.096;6.062;2022-07-12T07:56:56;5.30;;;3.22;;
52898;SDS011;38763;53.096;6.062;2022-07-12T07:59:22;4.38;;;3.10;;
52898;SDS011;38763;53.096;6.062;2022-07-12T08:01:48;4.13;;;2.95;;
52898;SDS011;38763;53.096;6.062;2022-07-12T08:04:17;4.80;;;3.25;;
52898;SDS011;38763;53.096;6.062;2022-07-12T08:06:44;5.82;;;3.00;;
52898;SDS011;38763;53.096;6.062;2022-07-12T08:09:10;4.40;;;3.03;;
52898;SDS011;38763;53.096;6.062;2022-07-12T08:11:36;5.43;;;3.45;;
52898;SDS011;38763;53.096;6.062;2022-07-12T08:14:05;7.38;;;3.70;;
52898;SDS011;38763;53.096;6.062;2022-07-12T08:16:32;5.57;;;3.13;;
52898;SDS011;38763;53.096;6.062;2022-07-12T08:18:58;4.45;;;2.78;;
52898;SDS011;38763;53.096;6.062;2022-07-12T08:21:23;6.80;;;2.97;;
52898;SDS011;38763;53.096;6.062;2022-07-12T08:23:49;5.18;;;3.00;;
52898;SDS011;38763;53.096;6.062;2022-07-12T08:26:15;4.13;;;2.70;;
52898;SDS011;38763;53.096;6.062;2022-07-12T08:28:41;5.10;;;2.42;;
52898;SDS011;38763;53.096;6.062;2022-07-12T08:31:07;4.63;;;2.42;;
52898;SDS011;38763;53.096;6.062;2022-07-12T08:33:33;5.82;;;2.53;;
52898;SDS011;38763;53.096;6.062;2022-07-12T08:35:58;4.35;;;2.30;;
52898;SDS011;38763;53.096;6.062;2022-07-12T08:38:24;5.35;;;2.90;;
52898;SDS011;38763;53.096;6.062;2022-07-12T08:40:50;3.72;;;2.25;;
52898;SDS011;38763;53.096;6.062;2022-07-12T08:43:15;3.80;;;2.67;;
52898;SDS011;38763;53.096;6.062;2022-07-12T08:45:41;6.35;;;2.30;;
52898;SDS011;38763;53.096;6.062;2022-07-12T08:48:07;3.60;;;2.50;;
52898;SDS011;38763;53.096;6.062;2022-07-12T08:50:33;4.18;;;2.33;;
52898;SDS011;38763;53.096;6.062;2022-07-12T08:52:59;5.85;;;2.30;;
52898;SDS011;38763;53.096;6.062;2022-07-12T08:55:30;5.53;;;2.30;;
52898;SDS011;38763;53.096;6.062;2022-07-12T08:58:00;5.18;;;2.90;;
52898;SDS011;38763;53.096;6.062;2022-07-12T09:00:27;11.68;;;2.75;;
52898;SDS011;38763;53.096;6.062;2022-07-12T09:02:54;6.40;;;2.80;;
52898;SDS011;38763;53.096;6.062;2022-07-12T09:05:22;4.47;;;2.70;;
52898;SDS011;38763;53.096;6.062;2022-07-12T09:07:49;5.75;;;2.80;;
52898;SDS011;38763;53.096;6.062;2022-07-12T09:10:15;6.25;;;2.78;;
52898;SDS011;38763;53.096;6.062;2022-07-12T09:12:42;4.70;;;2.70;;
52898;SDS011;38763;53.096;6.062;2022-07-12T09:18:00;4.10;;;2.90;;
52898;SDS011;38763;53.096;6.062;2022-07-12T09:20:38;4.43;;;3.13;;
52898;SDS011;38763;53.096;6.062;2022-07-12T09:23:05;6.65;;;3.00;;
52898;SDS011;38763;53.096;6.062;2022-07-12T09:25:34;4.32;;;3.00;;
52898;SDS011;38763;53.096;6.062;2022-07-12T09:28:02;5.07;;;2.70;;
52898;SDS011;38763;53.096;6.062;2022-07-12T09:30:29;4.38;;;3.00;;
52898;SDS011;38763;53.096;6.062;2022-07-12T09:33:02;4.38;;;2.97;;
52898;SDS011;38763;53.096;6.062;2022-07-12T09:35:58;5.95;;;3.10;;
52898;SDS011;38763;53.096;6.062;2022-07-12T09:38:59;5.53;;;2.85;;
52898;SDS011;38763;53.096;6.062;2022-07-12T09:41:27;4.63;;;2.97;;
52898;SDS011;38763;53.096;6.062;2022-07-12T09:43:53;4.63;;;2.88;;
52898;SDS011;38763;53.096;6.062;2022-07-12T09:46:19;5.07;;;3.22;;
52898;SDS011;38763;53.096;6.062;2022-07-12T09:48:45;4.57;;;2.80;;
52898;SDS011;38763;53.096;6.062;2022-07-12T09:51:15;4.43;;;3.17;;
52898;SDS011;38763;53.096;6.062;2022-07-12T09:53:43;7.55;;;4.40;;
52898;SDS011;38763;53.096;6.062;2022-07-12T09:56:10;4.30;;;3.20;;
52898;SDS011;38763;53.096;6.062;2022-07-12T09:58:53;5.25;;;3.80;;
52898;SDS011;38763;53.096;6.062;2022-07-12T10:01:21;8.80;;;5.28;;
52898;SDS011;38763;53.096;6.062;2022-07-12T10:03:48;9.13;;;4.50;;
52898;SDS011;38763;53.096;6.062;2022-07-12T10:06:16;6.18;;;4.10;;
52898;SDS011;38763;53.096;6.062;2022-07-12T10:08:51;9.50;;;5.40;;
52898;SDS011;38763;53.096;6.062;2022-07-12T10:11:17;8.15;;;5.25;;
52898;SDS011;38763;53.096;6.062;2022-07-12T10:13:44;7.82;;;5.10;;
52898;SDS011;38763;53.096;6.062;2022-07-12T10:16:12;6.28;;;4.40;;
52898;SDS011;38763;53.096;6.062;2022-07-12T10:18:39;7.50;;;4.32;;
52898;SDS011;38763;53.096;6.062;2022-07-12T10:21:38;6.80;;;4.32;;
52898;SDS011;38763;53.096;6.062;2022-07-12T10:24:05;7.60;;;4.20;;
52898;SDS011;38763;53.096;6.062;2022-07-12T10:26:59;6.57;;;4.88;;
52898;SDS011;38763;53.096;6.062;2022-07-12T10:29:55;5.97;;;3.60;;
52898;SDS011;38763;53.096;6.062;2022-07-12T10:32:37;7.05;;;4.18;;
52898;SDS011;38763;53.096;6.062;2022-07-12T10:35:11;5.70;;;4.00;;
52898;SDS011;38763;53.096;6.062;2022-07-12T10:37:42;5.15;;;3.45;;
52898;SDS011;38763;53.096;6.062;2022-07-12T10:40:39;7.47;;;4.60;;
52898;SDS011;38763;53.096;6.062;2022-07-12T10:45:42;5.63;;;3.38;;
52898;SDS011;38763;53.096;6.062;2022-07-12T10:48:18;6.32;;;3.95;;
52898;SDS011;38763;53.096;6.062;2022-07-12T10:53:34;8.27;;;4.05;;
52898;SDS011;38763;53.096;6.062;2022-07-12T10:58:42;5.78;;;2.92;;
52898;SDS011;38763;53.096;6.062;2022-07-12T11:01:14;4.72;;;2.95;;
52898;SDS011;38763;53.096;6.062;2022-07-12T11:03:48;4.65;;;3.00;;
52898;SDS011;38763;53.096;6.062;2022-07-12T11:06:18;5.40;;;3.13;;
52898;SDS011;38763;53.096;6.062;2022-07-12T11:09:02;4.63;;;3.28;;
52898;SDS011;38763;53.096;6.062;2022-07-12T11:11:32;5.75;;;3.67;;
52898;SDS011;38763;53.096;6.062;2022-07-12T11:14:08;7.72;;;3.65;;
52898;SDS011;38763;53.096;6.062;2022-07-12T11:16:34;6.25;;;3.30;;
52898;SDS011;38763;53.096;6.062;2022-07-12T11:19:07;5.78;;;3.20;;
52898;SDS011;38763;53.096;6.062;2022-07-12T11:21:33;3.80;;;2.50;;
52898;SDS011;38763;53.096;6.062;2022-07-12T11:23:58;4.93;;;3.35;;
52898;SDS011;38763;53.096;6.062;2022-07-12T11:26:24;5.45;;;2.95;;
52898;SDS011;38763;53.096;6.062;2022-07-12T11:28:50;4.57;;;2.97;;
52898;SDS011;38763;53.096;6.062;2022-07-12T11:31:16;4.22;;;2.92;;
52898;SDS011;38763;53.096;6.062;2022-07-12T11:33:47;7.65;;;3.25;;
52898;SDS011;38763;53.096;6.062;2022-07-12T11:36:14;4.80;;;3.20;;
52898;SDS011;38763;53.096;6.062;2022-07-12T11:38:41;8.25;;;3.03;;
52898;SDS011;38763;53.096;6.062;2022-07-12T11:41:08;4.57;;;2.50;;
52898;SDS011;38763;53.096;6.062;2022-07-12T11:43:35;4.38;;;2.58;;
52898;SDS011;38763;53.096;6.062;2022-07-12T11:46:02;5.10;;;2.63;;
52898;SDS011;38763;53.096;6.062;2022-07-12T11:48:29;4.43;;;2.50;;
52898;SDS011;38763;53.096;6.062;2022-07-12T11:50:59;6.00;;;2.63;;
52898;SDS011;38763;53.096;6.062;2022-07-12T11:53:33;7.10;;;2.60;;
52898;SDS011;38763;53.096;6.062;2022-07-12T11:56:00;4.85;;;2.60;;
52898;SDS011;38763;53.096;6.062;2022-07-12T11:58:27;4.10;;;2.30;;
52898;SDS011;38763;53.096;6.062;2022-07-12T12:00:54;6.90;;;2.33;;
52898;SDS011;38763;53.096;6.062;2022-07-12T12:03:20;4.95;;;2.33;;
52898;SDS011;38763;53.096;6.062;2022-07-12T12:05:47;4.13;;;2.22;;
52898;SDS011;38763;53.096;6.062;2022-07-12T12:08:14;11.10;;;1.98;;
52898;SDS011;38763;53.096;6.062;2022-07-12T12:10:41;6.75;;;1.50;;
52898;SDS011;38763;53.096;6.062;2022-07-12T12:13:14;4.85;;;1.65;;
52898;SDS011;38763;53.096;6.062;2022-07-12T12:15:47;4.38;;;1.67;;
52898;SDS011;38763;53.096;6.062;2022-07-12T12:21:13;2.65;;;1.13;;
52898;SDS011;38763;53.096;6.062;2022-07-12T12:23:42;4.75;;;1.58;;
52898;SDS011;38763;53.096;6.062;2022-07-12T12:26:11;4.50;;;1.60;;
52898;SDS011;38763;53.096;6.062;2022-07-12T12:28:43;4.45;;;1.58;;
52898;SDS011;38763;53.096;6.062;2022-07-12T12:31:10;2.42;;;1.42;;
52898;SDS011;38763;53.096;6.062;2022-07-12T12:33:37;2.55;;;0.90;;
52898;SDS011;38763;53.096;6.062;2022-07-12T12:38:44;0.95;;;0.65;;
52898;SDS011;38763;53.096;6.062;2022-07-12T12:41:10;2.67;;;0.90;;
52898;SDS011;38763;53.096;6.062;2022-07-12T12:43:36;3.33;;;0.90;;
52898;SDS011;38763;53.096;6.062;2022-07-12T12:46:02;2.80;;;0.82;;
52898;SDS011;38763;53.096;6.062;2022-07-12T12:48:29;2.05;;;0.60;;
52898;SDS011;38763;53.096;6.062;2022-07-12T12:53:37;1.58;;;0.90;;
52898;SDS011;38763;53.096;6.062;2022-07-12T12:56:11;2.70;;;1.10;;
52898;SDS011;38763;53.096;6.062;2022-07-12T12:58:38;1.95;;;1.17;;
52898;SDS011;38763;53.096;6.062;2022-07-12T13:01:05;1.70;;;1.00;;
52898;SDS011;38763;53.096;6.062;2022-07-12T13:03:31;3.25;;;1.00;;
52898;SDS011;38763;53.096;6.062;2022-07-12T13:05:57;1.45;;;1.00;;
52898;SDS011;38763;53.096;6.062;2022-07-12T13:08:23;1.85;;;1.00;;
52898;SDS011;38763;53.096;6.062;2022-07-12T13:10:49;2.33;;;1.20;;
52898;SDS011;38763;53.096;6.062;2022-07-12T13:13:37;5.03;;;0.80;;
52898;SDS011;38763;53.096;6.062;2022-07-12T13:16:03;1.42;;;0.75;;
52898;SDS011;38763;53.096;6.062;2022-07-12T13:18:30;1.65;;;0.75;;
52898;SDS011;38763;53.096;6.062;2022-07-12T13:20:55;2.72;;;0.70;;
52898;SDS011;38763;53.096;6.062;2022-07-12T13:23:21;0.85;;;0.70;;
52898;SDS011;38763;53.096;6.062;2022-07-12T13:25:46;2.58;;;0.73;;
52898;SDS011;38763;53.096;6.062;2022-07-12T13:28:13;2.20;;;0.82;;
52898;SDS011;38763;53.096;6.062;2022-07-12T13:30:39;2.80;;;0.73;;
52898;SDS011;38763;53.096;6.062;2022-07-12T13:33:05;2.13;;;0.70;;
52898;SDS011;38763;53.096;6.062;2022-07-12T13:35:31;3.85;;;0.77;;
52898;SDS011;38763;53.096;6.062;2022-07-12T13:37:56;1.00;;;0.70;;
52898;SDS011;38763;53.096;6.062;2022-07-12T13:40:22;1.50;;;0.80;;
52898;SDS011;38763;53.096;6.062;2022-07-12T13:42:51;2.28;;;0.90;;
52898;SDS011;38763;53.096;6.062;2022-07-12T13:45:21;1.70;;;1.00;;
52898;SDS011;38763;53.096;6.062;2022-07-12T13:47:48;1.92;;;0.80;;
52898;SDS011;38763;53.096;6.062;2022-07-12T13:50:16;1.30;;;0.80;;
52898;SDS011;38763;53.096;6.062;2022-07-12T13:52:44;2.45;;;0.90;;
52898;SDS011;38763;53.096;6.062;2022-07-12T13:55:10;3.90;;;1.00;;
52898;SDS011;38763;53.096;6.062;2022-07-12T13:57:37;3.15;;;1.10;;
52898;SDS011;38763;53.096;6.062;2022-07-12T14:00:11;3.40;;;1.20;;
52898;SDS011;38763;53.096;6.062;2022-07-12T14:02:38;3.60;;;1.30;;
52898;SDS011;38763;53.096;6.062;2022-07-12T14:05:07;3.42;;;1.30;;
52898;SDS011;38763;53.096;6.062;2022-07-12T14:07:35;1.88;;;1.20;;
52898;SDS011;38763;53.096;6.062;2022-07-12T14:10:02;2.78;;;1.30;;
52898;SDS011;38763;53.096;6.062;2022-07-12T14:12:28;5.35;;;1.30;;
52898;SDS011;38763;53.096;6.062;2022-07-12T14:14:54;2.55;;;1.10;;
52898;SDS011;38763;53.096;6.062;2022-07-12T14:20:07;1.98;;;0.90;;
52898;SDS011;38763;53.096;6.062;2022-07-12T14:22:34;5.72;;;1.50;;
52898;SDS011;38763;53.096;6.062;2022-07-12T14:25:00;2.05;;;1.13;;
52898;SDS011;38763;53.096;6.062;2022-07-12T14:27:28;2.65;;;1.30;;
52898;SDS011;38763;53.096;6.062;2022-07-12T14:29:55;2.15;;;1.45;;
52898;SDS011;38763;53.096;6.062;2022-07-12T14:32:20;4.20;;;1.88;;
52898;SDS011;38763;53.096;6.062;2022-07-12T14:34:46;3.60;;;2.00;;
52898;SDS011;38763;53.096;6.062;2022-07-12T14:37:12;5.20;;;1.95;;
52898;SDS011;38763;53.096;6.062;2022-07-12T14:39:37;4.07;;;2.35;;
52898;SDS011;38763;53.096;6.062;2022-07-12T14:42:03;4.07;;;1.88;;
52898;SDS011;38763;53.096;6.062;2022-07-12T14:44:29;6.38;;;2.00;;
52898;SDS011;38763;53.096;6.062;2022-07-12T14:46:55;4.63;;;1.80;;
52898;SDS011;38763;53.096;6.062;2022-07-12T14:49:21;3.80;;;1.92;;
52898;SDS011;38763;53.096;6.062;2022-07-12T14:51:47;3.15;;;1.52;;
52898;SDS011;38763;53.096;6.062;2022-07-12T14:54:13;7.07;;;1.73;;
52898;SDS011;38763;53.096;6.062;2022-07-12T14:56:38;3.65;;;1.40;;
52898;SDS011;38763;53.096;6.062;2022-07-12T14:59:04;4.05;;;1.80;;
52898;SDS011;38763;53.096;6.062;2022-07-12T15:01:30;4.43;;;1.90;;
52898;SDS011;38763;53.096;6.062;2022-07-12T15:03:56;4.43;;;1.92;;
52898;SDS011;38763;53.096;6.062;2022-07-12T15:06:22;4.35;;;2.00;;